createdAt,value
2023-03-29T00:00:43.872Z,52.05
2023-03-29T00:03:15.027Z,52.13
2023-03-29T00:05:45.776Z,52.28
2023-03-29T00:08:18.586Z,52.20
2023-03-29T00:10:52.026Z,52.17
2023-03-29T00:13:22.995Z,52.25
2023-03-29T00:15:53.938Z,52.26
2023-03-29T00:18:24.836Z,52.12
2023-03-29T00:20:59.154Z,52.09
2023-03-29T00:23:30.165Z,52.15
2023-03-29T00:26:00.765Z,52.23
2023-03-29T00:28:31.754Z,52.19
2023-03-29T00:31:10.361Z,52.21
2023-03-29T00:33:42.439Z,52.15
2023-03-29T00:36:14.652Z,52.19
2023-03-29T00:38:45.420Z,52.26
2023-03-29T00:41:16.144Z,52.16
2023-03-29T00:43:58.387Z,52.22
2023-03-29T00:46:31.382Z,52.28
2023-03-29T00:49:08.856Z,52.27
2023-03-29T00:51:42.656Z,52.35
2023-03-29T00:54:15.073Z,52.39
2023-03-29T00:56:49.989Z,52.23
2023-03-29T00:59:23.259Z,52.15
2023-03-29T01:01:58.769Z,52.29
2023-03-29T01:04:34.154Z,52.35
2023-03-29T01:07:08.642Z,52.38
2023-03-29T01:09:44.870Z,52.31
2023-03-29T01:12:20.925Z,52.26
2023-03-29T01:14:58.462Z,52.20
2023-03-29T01:17:31.787Z,52.39
2023-03-29T01:20:10.829Z,52.47
2023-03-29T01:22:51.412Z,52.48
2023-03-29T01:25:27.376Z,52.44
2023-03-29T01:28:03.378Z,52.54
2023-03-29T01:30:40.022Z,52.38
2023-03-29T01:33:21.363Z,52.41
2023-03-29T01:35:58.494Z,52.53
2023-03-29T01:38:35.761Z,52.47
2023-03-29T01:41:07.956Z,52.45
2023-03-29T01:43:46.081Z,52.64
2023-03-29T01:46:27.391Z,52.56
2023-03-29T01:49:03.831Z,52.58
2023-03-29T01:51:38.671Z,52.70
2023-03-29T01:54:14.979Z,52.68
2023-03-29T01:56:49.135Z,52.80
2023-03-29T01:59:23.390Z,52.71
2023-03-29T02:02:00.085Z,52.83
2023-03-29T02:04:34.717Z,52.86
2023-03-29T02:07:08.755Z,52.73
2023-03-29T02:09:42.100Z,52.87
2023-03-29T02:12:14.754Z,52.79
2023-03-29T02:14:45.493Z,52.79
2023-03-29T02:17:21.627Z,52.90
2023-03-29T02:19:55.841Z,52.85
2023-03-29T02:22:32.525Z,52.91
2023-03-29T02:25:05.035Z,52.90
2023-03-29T02:27:37.933Z,52.90
2023-03-29T02:30:11.240Z,52.90
2023-03-29T02:32:50.354Z,52.98
2023-03-29T02:35:29.023Z,53.03
2023-03-29T02:38:01.476Z,53.17
2023-03-29T02:40:34.430Z,53.24
2023-03-29T02:43:07.984Z,53.41
2023-03-29T02:45:40.623Z,53.34
2023-03-29T02:48:16.308Z,53.39
2023-03-29T02:50:52.033Z,53.42
2023-03-29T02:53:28.242Z,53.03
2023-03-29T02:56:02.271Z,53.21
2023-03-29T02:58:33.463Z,53.27
2023-03-29T03:01:06.873Z,53.21
2023-03-29T03:03:37.679Z,53.31
2023-03-29T03:06:09.128Z,53.26
2023-03-29T03:08:40.189Z,53.40
2023-03-29T03:11:10.927Z,53.36
2023-03-29T03:13:41.563Z,53.37
2023-03-29T03:16:13.252Z,53.34
2023-03-29T03:18:46.037Z,53.33
2023-03-29T03:21:19.047Z,53.35
2023-03-29T03:23:50.074Z,53.47
2023-03-29T03:26:20.936Z,53.44
2023-03-29T03:28:51.614Z,53.37
2023-03-29T03:31:22.478Z,53.37
2023-03-29T03:33:53.508Z,53.43
2023-03-29T03:36:26.126Z,53.43
2023-03-29T03:38:57.267Z,53.28
2023-03-29T03:41:28.576Z,53.35
2023-03-29T03:43:59.197Z,53.30
2023-03-29T03:46:29.945Z,53.34
2023-03-29T03:49:01.247Z,53.47
2023-03-29T03:51:32.160Z,53.58
2023-03-29T03:54:02.885Z,53.54
2023-03-29T03:56:34.277Z,53.55
2023-03-29T03:59:05.633Z,53.49
2023-03-29T04:01:37.881Z,53.57
2023-03-29T04:04:09.349Z,53.42
2023-03-29T04:06:44.257Z,53.49
2023-03-29T04:09:14.945Z,53.53
2023-03-29T04:11:45.634Z,53.43
2023-03-29T04:14:16.827Z,53.53
2023-03-29T04:16:47.635Z,53.37
2023-03-29T04:19:18.873Z,53.33
2023-03-29T04:21:51.285Z,53.40
2023-03-29T04:24:21.915Z,53.30
2023-03-29T04:26:54.022Z,53.27
2023-03-29T04:29:24.645Z,53.28
2023-03-29T04:31:56.510Z,51.43
2023-03-29T04:34:27.227Z,51.22
2023-03-29T04:36:58.922Z,51.11
2023-03-29T04:39:34.140Z,51.40
2023-03-29T04:42:06.048Z,51.42
2023-03-29T04:44:37.032Z,51.56
2023-03-29T04:47:07.846Z,51.60
2023-03-29T04:49:38.568Z,51.62
2023-03-29T04:52:10.027Z,51.49
2023-03-29T04:54:40.720Z,51.58
2023-03-29T04:57:11.674Z,51.57
2023-03-29T04:59:42.647Z,51.60
2023-03-29T05:02:13.702Z,51.49
2023-03-29T05:04:44.478Z,51.37
2023-03-29T05:07:15.734Z,51.54
2023-03-29T05:09:46.416Z,51.41
2023-03-29T05:12:17.384Z,51.58
2023-03-29T05:14:47.986Z,51.50
2023-03-29T05:17:18.732Z,51.33
2023-03-29T05:19:49.371Z,51.35
2023-03-29T05:22:20.324Z,51.35
2023-03-29T05:24:51.581Z,51.40
2023-03-29T05:27:22.970Z,51.33
2023-03-29T05:29:53.933Z,51.48
2023-03-29T05:32:25.088Z,51.56
2023-03-29T05:34:56.161Z,51.44
2023-03-29T05:37:26.895Z,51.30
2023-03-29T05:40:05.862Z,51.67
2023-03-29T05:42:39.519Z,51.55
2023-03-29T05:45:12.315Z,51.57
2023-03-29T05:47:43.050Z,51.52
2023-03-29T05:50:14.303Z,51.67
2023-03-29T05:52:45.005Z,51.70
2023-03-29T05:55:16.165Z,51.62
2023-03-29T05:57:46.905Z,51.67
2023-03-29T06:00:24.095Z,51.60
2023-03-29T06:03:00.996Z,51.58
2023-03-29T06:05:37.240Z,51.62
2023-03-29T06:08:09.117Z,51.54
2023-03-29T06:10:43.200Z,51.59
2023-03-29T06:13:14.103Z,51.69
2023-03-29T06:15:47.308Z,51.77
2023-03-29T06:18:18.244Z,51.73
2023-03-29T06:20:52.197Z,51.65
2023-03-29T06:23:24.426Z,51.61
2023-03-29T06:25:55.353Z,51.79
2023-03-29T06:28:26.267Z,51.80
2023-03-29T06:31:02.861Z,51.74
2023-03-29T06:33:34.303Z,51.69
2023-03-29T06:36:05.886Z,51.64
2023-03-29T06:38:37.309Z,51.73
2023-03-29T06:41:11.215Z,51.69
2023-03-29T06:43:42.169Z,51.86
2023-03-29T06:46:13.488Z,51.81
2023-03-29T06:48:45.122Z,51.64
2023-03-29T06:51:15.796Z,51.63
2023-03-29T06:53:46.456Z,51.82
2023-03-29T06:56:17.743Z,51.88
2023-03-29T06:58:48.695Z,51.81
2023-03-29T07:01:19.505Z,51.82
2023-03-29T07:03:50.222Z,51.78
2023-03-29T07:06:21.982Z,51.73
2023-03-29T07:08:53.746Z,51.76
2023-03-29T07:11:24.481Z,51.88
2023-03-29T07:13:55.564Z,51.81
2023-03-29T07:16:27.383Z,51.94
2023-03-29T07:18:58.327Z,51.82
2023-03-29T07:21:29.000Z,51.70
2023-03-29T07:23:59.907Z,51.88
2023-03-29T07:26:30.649Z,51.86
2023-03-29T07:29:01.339Z,51.97
2023-03-29T07:31:33.242Z,51.94
2023-03-29T07:34:07.261Z,51.95
2023-03-29T07:36:38.614Z,51.83
2023-03-29T07:39:09.961Z,51.93
2023-03-29T07:41:40.704Z,51.77
2023-03-29T07:44:11.329Z,51.94
2023-03-29T07:46:43.426Z,51.99
2023-03-29T07:49:14.140Z,52.03
2023-03-29T07:51:45.083Z,51.96
2023-03-29T07:54:16.022Z,52.01
2023-03-29T07:56:47.782Z,51.89
2023-03-29T07:59:19.048Z,52.03
2023-03-29T08:01:50.491Z,51.94
2023-03-29T08:04:21.588Z,52.06
2023-03-29T08:06:52.484Z,52.12
2023-03-29T08:09:23.404Z,52.13
2023-03-29T08:11:54.240Z,52.15
2023-03-29T08:14:25.415Z,52.11
2023-03-29T08:16:56.400Z,52.07
2023-03-29T08:19:27.406Z,52.07
2023-03-29T08:21:58.154Z,52.04
2023-03-29T08:24:29.058Z,52.05
2023-03-29T08:26:59.953Z,52.05
2023-03-29T08:29:31.297Z,52.03
2023-03-29T08:32:01.905Z,52.02
2023-03-29T08:34:32.773Z,52.02
2023-03-29T08:37:04.871Z,51.98
2023-03-29T08:39:35.659Z,52.04
2023-03-29T08:42:21.739Z,52.04
2023-03-29T08:44:58.018Z,52.03
2023-03-29T08:47:35.739Z,52.17
2023-03-29T08:50:07.774Z,52.09
2023-03-29T08:52:41.568Z,52.20
2023-03-29T08:55:28.496Z,52.06
2023-03-29T08:58:01.178Z,52.16
2023-03-29T09:00:40.224Z,52.17
2023-03-29T09:03:22.333Z,52.13
2023-03-29T09:05:57.739Z,52.20
2023-03-29T09:08:28.785Z,52.08
2023-03-29T09:11:15.732Z,52.16
2023-03-29T09:13:57.777Z,52.04
2023-03-29T09:16:34.846Z,52.00
2023-03-29T09:19:13.472Z,51.99
2023-03-29T09:21:51.697Z,51.94
2023-03-29T09:24:39.532Z,51.88
2023-03-29T09:27:16.045Z,51.88
2023-03-29T09:30:06.223Z,51.86
2023-03-29T09:32:45.683Z,51.82
2023-03-29T09:35:22.492Z,51.84
2023-03-29T09:37:55.946Z,51.65
2023-03-29T09:40:31.147Z,51.69
2023-03-29T09:43:05.342Z,51.84
2023-03-29T09:45:39.578Z,51.61
2023-03-29T09:48:15.669Z,51.66
2023-03-29T09:50:48.659Z,51.72
2023-03-29T09:53:21.864Z,51.76
2023-03-29T09:55:55.443Z,51.67
2023-03-29T09:58:31.028Z,51.59
2023-03-29T10:01:03.095Z,51.67
2023-03-29T10:03:35.073Z,51.70
2023-03-29T10:06:08.646Z,51.67
2023-03-29T10:08:42.826Z,51.63
2023-03-29T10:11:22.177Z,51.57
2023-03-29T10:13:57.274Z,51.55
2023-03-29T10:16:32.178Z,51.56
2023-03-29T10:19:19.338Z,51.49
2023-03-29T10:21:52.931Z,51.45
2023-03-29T10:24:26.964Z,51.34
2023-03-29T10:26:58.321Z,51.42
2023-03-29T10:29:36.465Z,51.53
2023-03-29T10:32:17.586Z,51.41
2023-03-29T10:34:50.456Z,51.48
2023-03-29T10:37:23.587Z,51.41
2023-03-29T10:39:56.986Z,51.41
2023-03-29T10:42:29.343Z,51.44
2023-03-29T10:45:01.769Z,51.37
2023-03-29T10:47:35.444Z,51.35
2023-03-29T10:50:12.892Z,51.36
2023-03-29T10:52:43.836Z,51.45
2023-03-29T10:55:17.177Z,51.36
2023-03-29T10:57:57.078Z,51.31
2023-03-29T11:00:33.422Z,51.41
2023-03-29T11:03:21.933Z,51.36
2023-03-29T11:06:00.231Z,51.30
2023-03-29T11:08:41.093Z,51.37
2023-03-29T11:11:24.623Z,51.21
2023-03-29T11:14:01.721Z,51.21
2023-03-29T11:16:40.459Z,51.20
2023-03-29T11:19:44.829Z,51.14
2023-03-29T11:22:24.005Z,51.14
2023-03-29T11:25:11.419Z,51.21
2023-03-29T11:27:51.144Z,51.17
2023-03-29T11:30:29.133Z,51.01
2023-03-29T11:33:13.942Z,51.25
2023-03-29T11:36:00.184Z,51.21
2023-03-29T11:38:37.201Z,51.22
2023-03-29T11:41:17.785Z,51.16
2023-03-29T11:43:53.263Z,51.22
2023-03-29T11:46:31.546Z,51.28
2023-03-29T11:49:07.635Z,51.28
2023-03-29T11:51:42.875Z,51.13
2023-03-29T11:54:20.732Z,51.13
2023-03-29T11:56:57.352Z,51.23
2023-03-29T11:59:33.850Z,51.14
2023-03-29T12:02:13.676Z,51.10
2023-03-29T12:04:50.102Z,51.14
2023-03-29T12:07:25.350Z,51.11
2023-03-29T12:10:00.070Z,51.13
2023-03-29T12:12:40.425Z,51.15
2023-03-29T12:15:20.383Z,51.08
2023-03-29T12:17:56.320Z,51.04
2023-03-29T12:20:31.661Z,51.10
2023-03-29T12:23:02.991Z,51.10
2023-03-29T12:25:39.459Z,51.02
2023-03-29T12:28:24.341Z,51.07
2023-03-29T12:31:03.961Z,51.14
2023-03-29T12:34:10.751Z,51.23
2023-03-29T12:37:00.570Z,51.27
2023-03-29T12:39:33.458Z,51.25
2023-03-29T12:42:18.131Z,51.07
2023-03-29T12:44:58.547Z,51.16
2023-03-29T12:47:33.788Z,51.24
2023-03-29T12:50:05.420Z,51.19
2023-03-29T12:52:37.839Z,51.17
2023-03-29T12:55:23.228Z,51.14
2023-03-29T12:58:05.654Z,51.19
2023-03-29T13:00:46.301Z,51.32
2023-03-29T13:03:36.157Z,51.24
2023-03-29T13:06:10.462Z,51.23
2023-03-29T13:08:43.239Z,51.20
2023-03-29T13:11:28.511Z,50.99
2023-03-29T13:14:01.635Z,51.16
2023-03-29T13:16:37.080Z,51.12
2023-03-29T13:19:29.909Z,51.11
2023-03-29T13:22:15.819Z,51.06
2023-03-29T13:25:10.216Z,51.18
2023-03-29T13:27:51.330Z,51.04
2023-03-29T13:30:31.411Z,51.07
2023-03-29T13:33:10.318Z,51.05
2023-03-29T13:35:49.419Z,51.11
2023-03-29T13:38:26.022Z,51.16
2023-03-29T13:41:05.101Z,51.11
2023-03-29T13:43:51.131Z,51.11
2023-03-29T13:46:36.500Z,51.17
2023-03-29T13:49:19.891Z,51.05
2023-03-29T13:52:17.993Z,51.11
2023-03-29T13:54:58.486Z,51.11
2023-03-29T13:57:37.391Z,51.04
2023-03-29T14:00:18.155Z,51.04
2023-03-29T14:02:51.893Z,51.14
2023-03-29T14:05:29.801Z,51.03
2023-03-29T14:08:08.995Z,50.96
2023-03-29T14:10:42.898Z,50.89
2023-03-29T14:13:16.561Z,50.93
2023-03-29T14:15:50.870Z,51.05
2023-03-29T14:18:25.512Z,50.93
2023-03-29T14:20:58.013Z,50.98
2023-03-29T14:23:31.882Z,51.02
2023-03-29T14:26:10.742Z,51.04
2023-03-29T14:28:47.518Z,51.06
2023-03-29T14:31:23.349Z,51.14
2023-03-29T14:33:57.564Z,51.08
2023-03-29T14:36:30.054Z,51.00
2023-03-29T14:39:04.219Z,50.99
2023-03-29T14:41:33.740Z,51.08
2023-03-29T14:44:06.866Z,51.00
2023-03-29T14:46:38.875Z,50.95
2023-03-29T14:49:11.393Z,50.82
2023-03-29T14:51:42.596Z,50.85
2023-03-29T14:54:20.900Z,50.94
2023-03-29T14:56:53.141Z,50.98
2023-03-29T14:59:30.131Z,50.95
2023-03-29T15:02:01.822Z,51.08
2023-03-29T15:04:37.543Z,51.01
2023-03-29T15:07:09.435Z,51.08
2023-03-29T15:09:40.919Z,51.11
2023-03-29T15:12:17.751Z,51.06
2023-03-29T15:14:49.978Z,51.15
2023-03-29T15:17:49.523Z,51.14
2023-03-29T15:20:26.216Z,51.22
2023-03-29T15:23:00.279Z,51.15
2023-03-29T15:25:36.472Z,51.11
2023-03-29T15:28:08.044Z,51.09
2023-03-29T15:30:49.434Z,51.16
2023-03-29T15:33:26.159Z,51.20
2023-03-29T15:35:58.532Z,51.13
2023-03-29T15:38:40.462Z,51.28
2023-03-29T15:41:15.788Z,51.15
2023-03-29T15:43:47.494Z,51.17
2023-03-29T15:46:18.664Z,51.19
2023-03-29T15:48:49.588Z,51.14
2023-03-29T15:51:20.716Z,51.14
2023-03-29T15:53:51.656Z,51.04
2023-03-29T15:56:24.100Z,51.08
2023-03-29T15:58:55.095Z,51.12
2023-03-29T16:01:35.045Z,51.07
2023-03-29T16:04:07.438Z,51.24
2023-03-29T16:06:38.677Z,51.24
2023-03-29T16:09:12.194Z,51.22
2023-03-29T16:11:42.452Z,51.11
2023-03-29T16:14:23.189Z,51.15
2023-03-29T16:16:55.585Z,51.06
2023-03-29T16:19:27.591Z,50.99
2023-03-29T16:21:59.586Z,51.06
2023-03-29T16:24:33.042Z,51.05
2023-03-29T16:27:07.420Z,51.13
2023-03-29T16:29:38.334Z,50.97
2023-03-29T16:32:11.401Z,50.81
2023-03-29T16:34:43.323Z,51.03
2023-03-29T16:37:14.459Z,50.80
2023-03-29T16:39:46.402Z,50.74
2023-03-29T16:42:17.742Z,50.79
2023-03-29T16:44:48.506Z,50.68
2023-03-29T16:47:19.308Z,50.66
2023-03-29T16:49:50.142Z,49.90
2023-03-29T16:52:21.324Z,49.93
2023-03-29T16:54:53.258Z,49.67
2023-03-29T16:57:25.221Z,49.71
2023-03-29T16:59:57.217Z,49.88
2023-03-29T17:02:28.310Z,49.94
2023-03-29T17:04:59.494Z,49.94
2023-03-29T17:07:30.836Z,49.96
2023-03-29T17:10:04.706Z,49.81
2023-03-29T17:12:34.162Z,49.85
2023-03-29T17:15:05.590Z,49.95
2023-03-29T17:17:37.529Z,49.94
2023-03-29T17:20:12.630Z,49.86
2023-03-29T17:22:44.133Z,49.91
2023-03-29T17:25:15.018Z,50.00
2023-03-29T17:27:47.562Z,49.93
2023-03-29T17:30:19.094Z,50.07
2023-03-29T17:32:50.260Z,49.94
2023-03-29T17:35:21.363Z,49.76
2023-03-29T17:37:52.454Z,49.83
2023-03-29T17:40:23.699Z,49.83
2023-03-29T17:42:54.668Z,49.71
2023-03-29T17:45:25.837Z,49.80
2023-03-29T17:47:56.896Z,49.72
2023-03-29T17:50:28.108Z,49.86
2023-03-29T17:52:59.171Z,49.85
2023-03-29T17:55:30.065Z,49.79
2023-03-29T17:58:00.876Z,49.69
2023-03-29T18:00:31.739Z,49.87
2023-03-29T18:03:03.134Z,49.75
2023-03-29T18:05:35.357Z,49.80
2023-03-29T18:08:06.878Z,49.76
2023-03-29T18:10:38.210Z,49.67
2023-03-29T18:13:11.367Z,49.82
2023-03-29T18:15:42.262Z,49.85
2023-03-29T18:18:13.213Z,49.99
2023-03-29T18:20:45.420Z,49.90
2023-03-29T18:23:16.326Z,49.87
2023-03-29T18:25:47.185Z,49.92
2023-03-29T18:28:18.445Z,49.94
2023-03-29T18:30:53.312Z,49.76
2023-03-29T18:33:24.500Z,49.91
2023-03-29T18:35:55.636Z,49.79
2023-03-29T18:38:27.146Z,49.96
2023-03-29T18:40:58.285Z,50.03
2023-03-29T18:43:29.193Z,49.94
2023-03-29T18:46:00.686Z,49.78
2023-03-29T18:48:31.804Z,49.91
2023-03-29T18:51:05.109Z,49.80
2023-03-29T18:53:37.203Z,49.48
2023-03-29T18:56:08.794Z,49.55
2023-03-29T18:58:39.668Z,49.57
2023-03-29T19:01:12.909Z,49.58
2023-03-29T19:03:44.088Z,49.72
2023-03-29T19:06:15.461Z,49.89
2023-03-29T19:08:46.421Z,49.86
2023-03-29T19:11:17.357Z,49.81
2023-03-29T19:13:50.711Z,49.76
2023-03-29T19:16:21.935Z,49.96
2023-03-29T19:18:53.142Z,50.06
2023-03-29T19:21:24.313Z,50.02
2023-03-29T19:23:55.533Z,50.03
2023-03-29T19:26:26.682Z,49.95
2023-03-29T19:28:57.736Z,50.07
2023-03-29T19:31:29.013Z,50.18
2023-03-29T19:33:59.848Z,50.25
2023-03-29T19:36:31.182Z,50.37
2023-03-29T19:39:02.010Z,50.08
2023-03-29T19:41:32.738Z,50.19
2023-03-29T19:44:03.797Z,50.27
2023-03-29T19:46:35.406Z,50.30
2023-03-29T19:49:06.520Z,50.43
2023-03-29T19:51:37.434Z,50.46
2023-03-29T19:54:08.699Z,50.29
2023-03-29T19:56:39.982Z,50.44
2023-03-29T19:59:14.841Z,50.32
2023-03-29T20:01:51.117Z,50.56
2023-03-29T20:04:24.609Z,50.52
2023-03-29T20:06:55.384Z,50.56
2023-03-29T20:09:26.111Z,50.56
2023-03-29T20:11:56.961Z,50.47
2023-03-29T20:14:27.905Z,50.54
2023-03-29T20:16:58.788Z,50.58
2023-03-29T20:19:30.191Z,50.67
2023-03-29T20:22:00.954Z,50.63
2023-03-29T20:24:32.761Z,50.76
2023-03-29T20:27:04.654Z,50.71
2023-03-29T20:29:35.618Z,50.65
2023-03-29T20:32:07.106Z,50.73
2023-03-29T20:34:38.238Z,50.69
2023-03-29T20:37:08.984Z,50.64
2023-03-29T20:39:39.859Z,50.66
2023-03-29T20:42:11.279Z,50.66
2023-03-29T20:44:41.944Z,50.66
2023-03-29T20:47:14.278Z,50.70
2023-03-29T20:49:44.861Z,50.95
2023-03-29T20:52:17.721Z,50.95
2023-03-29T20:54:49.253Z,50.90
2023-03-29T20:57:21.471Z,51.05
2023-03-29T20:59:53.277Z,51.02
2023-03-29T21:02:24.903Z,51.09
2023-03-29T21:05:00.367Z,51.12
2023-03-29T21:07:31.414Z,51.12
2023-03-29T21:10:02.808Z,50.97
2023-03-29T21:12:33.700Z,50.96
2023-03-29T21:15:05.576Z,51.11
2023-03-29T21:17:36.437Z,50.99
2023-03-29T21:20:11.235Z,51.03
2023-03-29T21:22:43.957Z,51.08
2023-03-29T21:25:16.573Z,51.06
2023-03-29T21:27:47.999Z,51.11
2023-03-29T21:30:18.811Z,51.11
2023-03-29T21:32:49.584Z,51.08
2023-03-29T21:35:20.694Z,51.15
2023-03-29T21:37:51.517Z,51.17
2023-03-29T21:40:22.445Z,51.16
2023-03-29T21:42:53.298Z,51.24
2023-03-29T21:45:24.147Z,51.19
2023-03-29T21:47:54.978Z,51.13
2023-03-29T21:50:26.101Z,51.25
2023-03-29T21:52:56.995Z,51.39
2023-03-29T21:55:27.825Z,51.27
2023-03-29T21:57:58.658Z,51.36
2023-03-29T22:00:29.860Z,51.30
2023-03-29T22:03:00.647Z,51.51
2023-03-29T22:05:31.721Z,51.51
2023-03-29T22:08:02.646Z,51.41
2023-03-29T22:10:34.604Z,51.41
2023-03-29T22:13:05.232Z,51.47
2023-03-29T22:15:36.280Z,51.53
2023-03-29T22:18:08.318Z,51.52
2023-03-29T22:20:40.213Z,51.55
2023-03-29T22:23:10.928Z,51.57
2023-03-29T22:25:41.623Z,51.45
2023-03-29T22:28:13.692Z,51.65
2023-03-29T22:30:44.526Z,51.70
2023-03-29T22:33:15.940Z,51.73
2023-03-29T22:35:46.626Z,51.81
2023-03-29T22:38:17.729Z,51.86
2023-03-29T22:40:48.451Z,51.78
2023-03-29T22:43:19.082Z,51.69
2023-03-29T22:45:50.198Z,51.83
2023-03-29T22:48:21.204Z,51.85
2023-03-29T22:50:51.832Z,51.95
2023-03-29T22:53:22.465Z,51.94
2023-03-29T22:55:53.076Z,52.05
2023-03-29T22:58:24.448Z,51.89
2023-03-29T23:00:55.289Z,52.16
2023-03-29T23:03:26.670Z,52.19
2023-03-29T23:05:59.022Z,52.12
2023-03-29T23:08:30.485Z,52.31
2023-03-29T23:11:02.242Z,52.28
2023-03-29T23:13:33.780Z,52.23
2023-03-29T23:16:05.675Z,52.31
2023-03-29T23:18:37.593Z,52.28
2023-03-29T23:21:09.138Z,52.46
2023-03-29T23:23:40.222Z,52.50
2023-03-29T23:26:11.369Z,52.45
2023-03-29T23:28:42.519Z,52.45
2023-03-29T23:31:17.921Z,52.60
2023-03-29T23:33:49.554Z,52.54
2023-03-29T23:36:22.938Z,52.56
2023-03-29T23:38:53.632Z,52.65
2023-03-29T23:41:28.493Z,52.66
2023-03-29T23:44:01.156Z,52.62
2023-03-29T23:46:33.046Z,52.74
2023-03-29T23:49:03.673Z,52.66
2023-03-29T23:51:35.015Z,52.64
2023-03-29T23:54:06.320Z,52.79
2023-03-29T23:56:36.968Z,52.70
2023-03-29T23:59:07.872Z,52.80
